sensor_id;sensor_type;location;lat;lon;timestamp;temperature;humidity
18898;DHT22;9581;49.484;8.556;2023-04-25T00:00:57;11.10;99.90
18898;DHT22;9581;49.484;8.556;2023-04-25T00:03:24;11.10;99.90
18898;DHT22;9581;49.484;8.556;2023-04-25T00:05:51;11.00;99.90
18898;DHT22;9581;49.484;8.556;2023-04-25T00:08:18;11.00;99.90
18898;DHT22;9581;49.484;8.556;2023-04-25T00:10:45;10.90;99.90
18898;DHT22;9581;49.484;8.556;2023-04-25T00:13:11;10.90;99.90
18898;DHT22;9581;49.484;8.556;2023-04-25T00:15:38;10.80;99.90
18898;DHT22;9581;49.484;8.556;2023-04-25T00:18:08;11.10;99.90
18898;DHT22;9581;49.484;8.556;2023-04-25T00:20:35;11.00;99.90
18898;DHT22;9581;49.484;8.556;2023-04-25T00:23:02;11.00;99.90
18898;DHT22;9581;49.484;8.556;2023-04-25T00:25:29;10.70;99.90
18898;DHT22;9581;49.484;8.556;2023-04-25T00:27:55;10.90;99.90
18898;DHT22;9581;49.484;8.556;2023-04-25T00:30:22;10.50;99.90
18898;DHT22;9581;49.484;8.556;2023-04-25T00:32:49;10.70;99.90
18898;DHT22;9581;49.484;8.556;2023-04-25T00:35:17;10.80;99.90
18898;DHT22;9581;49.484;8.556;2023-04-25T00:37:44;10.70;99.90
18898;DHT22;9581;49.484;8.556;2023-04-25T00:40:11;10.70;99.90
18898;DHT22;9581;49.484;8.556;2023-04-25T00:42:38;10.90;99.90
18898;DHT22;9581;49.484;8.556;2023-04-25T00:45:06;10.90;99.90
18898;DHT22;9581;49.484;8.556;2023-04-25T00:47:35;10.80;99.90
18898;DHT22;9581;49.484;8.556;2023-04-25T00:50:02;11.00;99.90
18898;DHT22;9581;49.484;8.556;2023-04-25T00:52:31;10.80;99.90
18898;DHT22;9581;49.484;8.556;2023-04-25T00:54:57;10.80;99.90
18898;DHT22;9581;49.484;8.556;2023-04-25T00:57:24;10.80;99.90
18898;DHT22;9581;49.484;8.556;2023-04-25T00:59:53;10.70;99.90
18898;DHT22;9581;49.484;8.556;2023-04-25T01:02:20;11.00;99.90
18898;DHT22;9581;49.484;8.556;2023-04-25T01:04:48;11.10;99.90
18898;DHT22;9581;49.484;8.556;2023-04-25T01:07:14;11.20;99.90
18898;DHT22;9581;49.484;8.556;2023-04-25T01:09:43;11.00;99.90
18898;DHT22;9581;49.484;8.556;2023-04-25T01:12:09;10.90;99.90
18898;DHT22;9581;49.484;8.556;2023-04-25T01:14:37;10.90;99.90
18898;DHT22;9581;49.484;8.556;2023-04-25T01:17:04;10.90;99.90
18898;DHT22;9581;49.484;8.556;2023-04-25T01:19:31;10.70;99.90
18898;DHT22;9581;49.484;8.556;2023-04-25T01:21:59;10.90;99.90
18898;DHT22;9581;49.484;8.556;2023-04-25T01:24:26;10.90;99.90
18898;DHT22;9581;49.484;8.556;2023-04-25T01:26:54;10.80;99.90
18898;DHT22;9581;49.484;8.556;2023-04-25T01:29:22;10.90;99.90
18898;DHT22;9581;49.484;8.556;2023-04-25T01:31:51;10.90;99.90
18898;DHT22;9581;49.484;8.556;2023-04-25T01:34:18;10.80;99.90
18898;DHT22;9581;49.484;8.556;2023-04-25T01:36:45;10.90;99.90
18898;DHT22;9581;49.484;8.556;2023-04-25T01:39:15;11.10;99.90
18898;DHT22;9581;49.484;8.556;2023-04-25T01:41:42;11.30;99.90
18898;DHT22;9581;49.484;8.556;2023-04-25T01:44:09;11.30;99.90
18898;DHT22;9581;49.484;8.556;2023-04-25T01:46:36;11.20;99.90
18898;DHT22;9581;49.484;8.556;2023-04-25T01:49:03;11.10;99.90
18898;DHT22;9581;49.484;8.556;2023-04-25T01:51:30;11.10;99.90
18898;DHT22;9581;49.484;8.556;2023-04-25T01:53:57;11.00;99.90
18898;DHT22;9581;49.484;8.556;2023-04-25T01:56:30;10.90;99.90
18898;DHT22;9581;49.484;8.556;2023-04-25T01:58:57;11.30;99.90
18898;DHT22;9581;49.484;8.556;2023-04-25T02:01:24;11.30;99.90
18898;DHT22;9581;49.484;8.556;2023-04-25T02:03:51;11.40;99.90
18898;DHT22;9581;49.484;8.556;2023-04-25T02:06:18;11.30;99.90
18898;DHT22;9581;49.484;8.556;2023-04-25T02:08:44;11.00;99.90
18898;DHT22;9581;49.484;8.556;2023-04-25T02:11:11;10.60;99.90
18898;DHT22;9581;49.484;8.556;2023-04-25T02:13:39;10.40;99.90
18898;DHT22;9581;49.484;8.556;2023-04-25T02:16:06;10.60;99.90
18898;DHT22;9581;49.484;8.556;2023-04-25T02:18:33;10.70;99.90
18898;DHT22;9581;49.484;8.556;2023-04-25T02:21:02;10.80;99.90
18898;DHT22;9581;49.484;8.556;2023-04-25T02:23:29;10.70;99.90
18898;DHT22;9581;49.484;8.556;2023-04-25T02:25:56;10.60;99.90
18898;DHT22;9581;49.484;8.556;2023-04-25T02:28:23;10.60;99.90
18898;DHT22;9581;49.484;8.556;2023-04-25T02:30:51;10.60;99.90
18898;DHT22;9581;49.484;8.556;2023-04-25T02:33:18;10.60;99.90
18898;DHT22;9581;49.484;8.556;2023-04-25T02:35:46;10.70;99.90
18898;DHT22;9581;49.484;8.556;2023-04-25T02:38:13;10.70;99.90
18898;DHT22;9581;49.484;8.556;2023-04-25T02:40:40;10.60;99.90
18898;DHT22;9581;49.484;8.556;2023-04-25T02:43:07;10.50;99.90
18898;DHT22;9581;49.484;8.556;2023-04-25T02:45:34;10.40;99.90
18898;DHT22;9581;49.484;8.556;2023-04-25T02:48:03;10.40;99.90
18898;DHT22;9581;49.484;8.556;2023-04-25T02:50:30;10.40;99.90
18898;DHT22;9581;49.484;8.556;2023-04-25T02:52:57;10.20;99.90
18898;DHT22;9581;49.484;8.556;2023-04-25T02:55:24;10.40;99.90
18898;DHT22;9581;49.484;8.556;2023-04-25T02:57:51;10.50;99.90
18898;DHT22;9581;49.484;8.556;2023-04-25T03:00:20;10.50;99.90
18898;DHT22;9581;49.484;8.556;2023-04-25T03:02:47;10.50;99.90
18898;DHT22;9581;49.484;8.556;2023-04-25T03:05:16;10.40;99.90
18898;DHT22;9581;49.484;8.556;2023-04-25T03:07:43;10.30;99.90
18898;DHT22;9581;49.484;8.556;2023-04-25T03:10:11;10.00;99.90
18898;DHT22;9581;49.484;8.556;2023-04-25T03:12:38;10.20;99.90
18898;DHT22;9581;49.484;8.556;2023-04-25T03:15:06;9.90;99.90
18898;DHT22;9581;49.484;8.556;2023-04-25T03:17:33;10.20;99.90
18898;DHT22;9581;49.484;8.556;2023-04-25T03:19:59;9.80;99.90
18898;DHT22;9581;49.484;8.556;2023-04-25T03:22:27;10.00;99.90
18898;DHT22;9581;49.484;8.556;2023-04-25T03:24:54;10.20;99.90
18898;DHT22;9581;49.484;8.556;2023-04-25T03:27:21;10.20;99.90
18898;DHT22;9581;49.484;8.556;2023-04-25T03:29:48;10.20;99.90
18898;DHT22;9581;49.484;8.556;2023-04-25T03:32:14;9.80;99.90
18898;DHT22;9581;49.484;8.556;2023-04-25T03:34:41;10.00;99.90
18898;DHT22;9581;49.484;8.556;2023-04-25T03:37:08;10.00;99.90
18898;DHT22;9581;49.484;8.556;2023-04-25T03:39:36;10.10;99.90
18898;DHT22;9581;49.484;8.556;2023-04-25T03:42:04;10.10;99.90
18898;DHT22;9581;49.484;8.556;2023-04-25T03:44:30;10.30;99.90
18898;DHT22;9581;49.484;8.556;2023-04-25T03:46:57;10.50;99.90
18898;DHT22;9581;49.484;8.556;2023-04-25T03:49:24;10.60;99.90
18898;DHT22;9581;49.484;8.556;2023-04-25T03:51:51;10.40;99.90
18898;DHT22;9581;49.484;8.556;2023-04-25T03:54:18;10.20;99.90
18898;DHT22;9581;49.484;8.556;2023-04-25T03:56:47;10.10;99.90
18898;DHT22;9581;49.484;8.556;2023-04-25T03:59:14;9.80;99.90
18898;DHT22;9581;49.484;8.556;2023-04-25T04:01:40;10.10;99.90
18898;DHT22;9581;49.484;8.556;2023-04-25T04:04:07;9.80;99.90
18898;DHT22;9581;49.484;8.556;2023-04-25T04:06:34;9.80;99.90
18898;DHT22;9581;49.484;8.556;2023-04-25T04:09:02;9.80;99.90
18898;DHT22;9581;49.484;8.556;2023-04-25T04:11:28;9.90;99.90
18898;DHT22;9581;49.484;8.556;2023-04-25T04:13:58;9.90;99.90
18898;DHT22;9581;49.484;8.556;2023-04-25T04:16:25;9.70;99.90
18898;DHT22;9581;49.484;8.556;2023-04-25T04:18:51;10.10;99.90
18898;DHT22;9581;49.484;8.556;2023-04-25T04:21:18;10.20;99.90
18898;DHT22;9581;49.484;8.556;2023-04-25T04:23:45;10.20;99.90
18898;DHT22;9581;49.484;8.556;2023-04-25T04:26:12;10.30;99.90
18898;DHT22;9581;49.484;8.556;2023-04-25T04:28:40;10.10;99.90
18898;DHT22;9581;49.484;8.556;2023-04-25T04:31:09;9.60;99.90
18898;DHT22;9581;49.484;8.556;2023-04-25T04:33:35;9.80;99.90
18898;DHT22;9581;49.484;8.556;2023-04-25T04:36:03;9.90;99.90
18898;DHT22;9581;49.484;8.556;2023-04-25T04:38:30;10.30;99.90
18898;DHT22;9581;49.484;8.556;2023-04-25T04:40:57;10.20;99.90
18898;DHT22;9581;49.484;8.556;2023-04-25T04:43:24;10.10;99.90
18898;DHT22;9581;49.484;8.556;2023-04-25T04:45:51;10.10;99.90
18898;DHT22;9581;49.484;8.556;2023-04-25T04:48:19;9.80;99.90
18898;DHT22;9581;49.484;8.556;2023-04-25T04:50:46;9.60;99.90
18898;DHT22;9581;49.484;8.556;2023-04-25T04:53:13;9.60;99.90
18898;DHT22;9581;49.484;8.556;2023-04-25T04:55:40;9.90;99.90
18898;DHT22;9581;49.484;8.556;2023-04-25T04:58:08;9.90;99.90
18898;DHT22;9581;49.484;8.556;2023-04-25T05:00:35;10.30;99.90
18898;DHT22;9581;49.484;8.556;2023-04-25T05:03:02;10.60;99.90
18898;DHT22;9581;49.484;8.556;2023-04-25T05:05:30;10.60;99.90
18898;DHT22;9581;49.484;8.556;2023-04-25T05:07:56;10.30;99.90
18898;DHT22;9581;49.484;8.556;2023-04-25T05:10:23;10.00;99.90
18898;DHT22;9581;49.484;8.556;2023-04-25T05:12:50;10.20;99.90
18898;DHT22;9581;49.484;8.556;2023-04-25T05:15:17;10.00;99.90
18898;DHT22;9581;49.484;8.556;2023-04-25T05:17:44;10.10;99.90
18898;DHT22;9581;49.484;8.556;2023-04-25T05:20:11;10.20;99.90
18898;DHT22;9581;49.484;8.556;2023-04-25T05:22:40;10.20;99.90
18898;DHT22;9581;49.484;8.556;2023-04-25T05:25:08;10.50;99.90
18898;DHT22;9581;49.484;8.556;2023-04-25T05:27:35;10.80;99.90
18898;DHT22;9581;49.484;8.556;2023-04-25T05:30:02;10.70;99.90
18898;DHT22;9581;49.484;8.556;2023-04-25T05:32:30;10.70;99.90
18898;DHT22;9581;49.484;8.556;2023-04-25T05:34:57;10.70;99.90
18898;DHT22;9581;49.484;8.556;2023-04-25T05:37:23;10.80;99.90
18898;DHT22;9581;49.484;8.556;2023-04-25T05:39:51;11.10;99.90
18898;DHT22;9581;49.484;8.556;2023-04-25T05:42:18;11.30;99.90
18898;DHT22;9581;49.484;8.556;2023-04-25T05:44:45;11.30;99.90
18898;DHT22;9581;49.484;8.556;2023-04-25T05:47:12;11.40;99.90
18898;DHT22;9581;49.484;8.556;2023-04-25T05:49:39;11.20;99.90
18898;DHT22;9581;49.484;8.556;2023-04-25T05:52:06;11.20;99.90
18898;DHT22;9581;49.484;8.556;2023-04-25T05:54:32;11.40;99.90
18898;DHT22;9581;49.484;8.556;2023-04-25T05:57:00;11.30;99.90
18898;DHT22;9581;49.484;8.556;2023-04-25T05:59:28;11.20;99.90
18898;DHT22;9581;49.484;8.556;2023-04-25T06:01:54;11.40;99.90
18898;DHT22;9581;49.484;8.556;2023-04-25T06:04:21;11.40;99.90
18898;DHT22;9581;49.484;8.556;2023-04-25T06:06:48;11.40;99.90
18898;DHT22;9581;49.484;8.556;2023-04-25T06:09:15;11.50;99.90
18898;DHT22;9581;49.484;8.556;2023-04-25T06:11:41;11.50;99.90
18898;DHT22;9581;49.484;8.556;2023-04-25T06:14:09;11.50;99.90
18898;DHT22;9581;49.484;8.556;2023-04-25T06:16:37;11.50;99.90
18898;DHT22;9581;49.484;8.556;2023-04-25T06:19:04;11.40;99.90
18898;DHT22;9581;49.484;8.556;2023-04-25T06:21:31;11.40;99.90
18898;DHT22;9581;49.484;8.556;2023-04-25T06:23:57;11.30;99.90
18898;DHT22;9581;49.484;8.556;2023-04-25T06:26:24;11.30;99.90
18898;DHT22;9581;49.484;8.556;2023-04-25T06:28:51;11.50;99.90
18898;DHT22;9581;49.484;8.556;2023-04-25T06:31:19;11.30;99.90
18898;DHT22;9581;49.484;8.556;2023-04-25T06:33:46;11.20;99.90
18898;DHT22;9581;49.484;8.556;2023-04-25T06:36:13;11.00;99.90
18898;DHT22;9581;49.484;8.556;2023-04-25T06:38:40;11.00;99.90
18898;DHT22;9581;49.484;8.556;2023-04-25T06:41:07;11.10;99.90
18898;DHT22;9581;49.484;8.556;2023-04-25T06:43:33;11.40;99.90
18898;DHT22;9581;49.484;8.556;2023-04-25T06:46:00;11.30;99.90
18898;DHT22;9581;49.484;8.556;2023-04-25T06:48:29;11.20;99.90
18898;DHT22;9581;49.484;8.556;2023-04-25T06:50:55;11.40;99.90
18898;DHT22;9581;49.484;8.556;2023-04-25T06:53:22;11.20;99.90
18898;DHT22;9581;49.484;8.556;2023-04-25T06:55:49;11.10;99.90
18898;DHT22;9581;49.484;8.556;2023-04-25T06:58:16;11.20;99.90
18898;DHT22;9581;49.484;8.556;2023-04-25T07:00:43;10.90;99.90
18898;DHT22;9581;49.484;8.556;2023-04-25T07:03:09;11.00;99.90
18898;DHT22;9581;49.484;8.556;2023-04-25T07:05:38;11.20;99.90
18898;DHT22;9581;49.484;8.556;2023-04-25T07:08:05;11.30;99.90
18898;DHT22;9581;49.484;8.556;2023-04-25T07:10:32;11.30;99.90
18898;DHT22;9581;49.484;8.556;2023-04-25T07:12:59;11.30;99.90
18898;DHT22;9581;49.484;8.556;2023-04-25T07:15:26;11.10;99.90
18898;DHT22;9581;49.484;8.556;2023-04-25T07:17:53;11.20;99.90
18898;DHT22;9581;49.484;8.556;2023-04-25T07:20:19;11.20;99.90
18898;DHT22;9581;49.484;8.556;2023-04-25T07:22:47;11.40;99.90
18898;DHT22;9581;49.484;8.556;2023-04-25T07:25:15;11.10;99.90
18898;DHT22;9581;49.484;8.556;2023-04-25T07:27:42;11.20;99.90
18898;DHT22;9581;49.484;8.556;2023-04-25T07:30:09;11.00;99.90
18898;DHT22;9581;49.484;8.556;2023-04-25T07:32:36;11.00;99.90
18898;DHT22;9581;49.484;8.556;2023-04-25T07:35:03;11.20;99.90
18898;DHT22;9581;49.484;8.556;2023-04-25T07:37:30;11.30;99.90
18898;DHT22;9581;49.484;8.556;2023-04-25T07:39:59;11.40;99.90
18898;DHT22;9581;49.484;8.556;2023-04-25T07:42:25;11.30;99.90
18898;DHT22;9581;49.484;8.556;2023-04-25T07:44:52;11.40;99.90
18898;DHT22;9581;49.484;8.556;2023-04-25T07:47:19;11.50;99.90
18898;DHT22;9581;49.484;8.556;2023-04-25T07:49:45;11.50;99.90
18898;DHT22;9581;49.484;8.556;2023-04-25T07:52:12;11.40;99.90
18898;DHT22;9581;49.484;8.556;2023-04-25T07:54:39;11.40;99.90
18898;DHT22;9581;49.484;8.556;2023-04-25T07:57:07;11.40;99.90
18898;DHT22;9581;49.484;8.556;2023-04-25T07:59:34;11.50;99.90
18898;DHT22;9581;49.484;8.556;2023-04-25T08:02:01;11.50;99.90
18898;DHT22;9581;49.484;8.556;2023-04-25T08:04:28;11.50;99.90
18898;DHT22;9581;49.484;8.556;2023-04-25T08:06:54;11.40;99.90
18898;DHT22;9581;49.484;8.556;2023-04-25T08:09:21;11.60;99.90
18898;DHT22;9581;49.484;8.556;2023-04-25T08:11:48;11.80;99.90
18898;DHT22;9581;49.484;8.556;2023-04-25T08:14:16;11.80;99.90
18898;DHT22;9581;49.484;8.556;2023-04-25T08:16:43;11.90;99.90
18898;DHT22;9581;49.484;8.556;2023-04-25T08:19:10;12.10;99.90
18898;DHT22;9581;49.484;8.556;2023-04-25T08:21:37;12.10;99.90
18898;DHT22;9581;49.484;8.556;2023-04-25T08:24:04;12.20;99.90
18898;DHT22;9581;49.484;8.556;2023-04-25T08:26:31;12.20;99.90
18898;DHT22;9581;49.484;8.556;2023-04-25T08:28:58;12.30;99.90
18898;DHT22;9581;49.484;8.556;2023-04-25T08:31:26;12.40;99.90
18898;DHT22;9581;49.484;8.556;2023-04-25T08:33:53;12.40;99.90
18898;DHT22;9581;49.484;8.556;2023-04-25T08:36:20;12.30;99.90
18898;DHT22;9581;49.484;8.556;2023-04-25T08:38:46;12.40;99.90
18898;DHT22;9581;49.484;8.556;2023-04-25T08:41:13;12.30;99.90
18898;DHT22;9581;49.484;8.556;2023-04-25T08:43:42;12.30;99.90
18898;DHT22;9581;49.484;8.556;2023-04-25T08:46:11;12.20;99.90
18898;DHT22;9581;49.484;8.556;2023-04-25T08:48:40;12.60;99.90
18898;DHT22;9581;49.484;8.556;2023-04-25T08:51:10;13.00;99.90
18898;DHT22;9581;49.484;8.556;2023-04-25T08:53:41;13.10;99.90
18898;DHT22;9581;49.484;8.556;2023-04-25T08:56:10;13.20;99.90
18898;DHT22;9581;49.484;8.556;2023-04-25T08:58:39;13.50;99.90
18898;DHT22;9581;49.484;8.556;2023-04-25T09:01:06;13.70;99.90
18898;DHT22;9581;49.484;8.556;2023-04-25T09:03:33;13.70;99.90
18898;DHT22;9581;49.484;8.556;2023-04-25T09:06:02;14.10;99.90
18898;DHT22;9581;49.484;8.556;2023-04-25T09:08:29;14.20;99.90
18898;DHT22;9581;49.484;8.556;2023-04-25T09:10:56;14.40;99.90
18898;DHT22;9581;49.484;8.556;2023-04-25T09:13:27;14.20;99.90
18898;DHT22;9581;49.484;8.556;2023-04-25T09:15:56;14.30;99.90
18898;DHT22;9581;49.484;8.556;2023-04-25T09:18:24;14.10;99.90
18898;DHT22;9581;49.484;8.556;2023-04-25T09:20:54;13.80;99.90
18898;DHT22;9581;49.484;8.556;2023-04-25T09:23:23;13.70;99.90
18898;DHT22;9581;49.484;8.556;2023-04-25T09:25:51;13.80;99.90
18898;DHT22;9581;49.484;8.556;2023-04-25T09:28:24;14.00;99.90
18898;DHT22;9581;49.484;8.556;2023-04-25T09:30:55;14.00;99.90
18898;DHT22;9581;49.484;8.556;2023-04-25T09:33:27;14.00;99.90
18898;DHT22;9581;49.484;8.556;2023-04-25T09:36:01;14.10;99.90
18898;DHT22;9581;49.484;8.556;2023-04-25T09:38:31;14.00;99.90
18898;DHT22;9581;49.484;8.556;2023-04-25T09:40:58;14.20;99.90
18898;DHT22;9581;49.484;8.556;2023-04-25T09:43:26;14.20;99.90
18898;DHT22;9581;49.484;8.556;2023-04-25T09:45:54;14.10;99.90
18898;DHT22;9581;49.484;8.556;2023-04-25T09:48:26;14.20;99.90
18898;DHT22;9581;49.484;8.556;2023-04-25T09:51:06;14.30;99.90
18898;DHT22;9581;49.484;8.556;2023-04-25T09:53:36;14.30;99.90
18898;DHT22;9581;49.484;8.556;2023-04-25T09:56:04;14.20;99.90
18898;DHT22;9581;49.484;8.556;2023-04-25T09:58:32;14.10;99.90
18898;DHT22;9581;49.484;8.556;2023-04-25T10:01:01;14.30;99.90
18898;DHT22;9581;49.484;8.556;2023-04-25T10:03:30;14.50;99.90
18898;DHT22;9581;49.484;8.556;2023-04-25T10:05:59;14.70;99.90
18898;DHT22;9581;49.484;8.556;2023-04-25T10:08:30;14.50;99.90
18898;DHT22;9581;49.484;8.556;2023-04-25T10:11:00;14.60;99.90
18898;DHT22;9581;49.484;8.556;2023-04-25T10:13:28;14.90;99.90
18898;DHT22;9581;49.484;8.556;2023-04-25T10:15:56;15.40;99.90
18898;DHT22;9581;49.484;8.556;2023-04-25T10:18:24;15.80;99.90
18898;DHT22;9581;49.484;8.556;2023-04-25T10:20:53;15.90;99.90
18898;DHT22;9581;49.484;8.556;2023-04-25T10:23:20;16.00;99.90
18898;DHT22;9581;49.484;8.556;2023-04-25T10:25:48;15.70;99.90
18898;DHT22;9581;49.484;8.556;2023-04-25T10:28:17;15.50;99.90
18898;DHT22;9581;49.484;8.556;2023-04-25T10:30:57;15.40;99.90
18898;DHT22;9581;49.484;8.556;2023-04-25T10:33:30;15.90;99.90
18898;DHT22;9581;49.484;8.556;2023-04-25T10:35:58;15.50;99.90
18898;DHT22;9581;49.484;8.556;2023-04-25T10:38:26;15.30;99.90
18898;DHT22;9581;49.484;8.556;2023-04-25T10:41:03;14.60;99.90
18898;DHT22;9581;49.484;8.556;2023-04-25T10:43:36;14.40;99.90
18898;DHT22;9581;49.484;8.556;2023-04-25T10:46:13;14.40;99.90
18898;DHT22;9581;49.484;8.556;2023-04-25T10:48:45;14.70;99.90
18898;DHT22;9581;49.484;8.556;2023-04-25T10:51:19;15.10;99.90
18898;DHT22;9581;49.484;8.556;2023-04-25T10:53:46;15.30;99.90
18898;DHT22;9581;49.484;8.556;2023-04-25T10:56:17;15.50;99.90
18898;DHT22;9581;49.484;8.556;2023-04-25T10:58:46;15.40;99.90
18898;DHT22;9581;49.484;8.556;2023-04-25T11:01:13;15.50;99.90
18898;DHT22;9581;49.484;8.556;2023-04-25T11:03:41;15.60;99.90
18898;DHT22;9581;49.484;8.556;2023-04-25T11:06:15;15.50;99.90
18898;DHT22;9581;49.484;8.556;2023-04-25T11:08:48;15.30;99.90
18898;DHT22;9581;49.484;8.556;2023-04-25T11:11:16;15.20;99.90
18898;DHT22;9581;49.484;8.556;2023-04-25T11:13:42;15.00;99.90
18898;DHT22;9581;49.484;8.556;2023-04-25T11:16:10;14.60;99.90
18898;DHT22;9581;49.484;8.556;2023-04-25T11:18:37;14.60;99.90
18898;DHT22;9581;49.484;8.556;2023-04-25T11:21:04;14.60;99.90
18898;DHT22;9581;49.484;8.556;2023-04-25T11:23:31;14.70;99.90
18898;DHT22;9581;49.484;8.556;2023-04-25T11:25:58;14.60;99.90
18898;DHT22;9581;49.484;8.556;2023-04-25T11:28:26;14.50;99.90
18898;DHT22;9581;49.484;8.556;2023-04-25T11:30:53;14.40;99.90
18898;DHT22;9581;49.484;8.556;2023-04-25T11:33:24;14.20;99.90
18898;DHT22;9581;49.484;8.556;2023-04-25T11:35:53;14.10;99.90
18898;DHT22;9581;49.484;8.556;2023-04-25T11:38:21;14.40;99.90
18898;DHT22;9581;49.484;8.556;2023-04-25T11:40:50;14.70;99.90
18898;DHT22;9581;49.484;8.556;2023-04-25T11:43:17;14.90;99.90
18898;DHT22;9581;49.484;8.556;2023-04-25T11:45:46;14.90;99.90
18898;DHT22;9581;49.484;8.556;2023-04-25T11:48:14;15.20;99.90
18898;DHT22;9581;49.484;8.556;2023-04-25T11:50:42;15.30;99.90
18898;DHT22;9581;49.484;8.556;2023-04-25T11:53:10;15.20;99.90
18898;DHT22;9581;49.484;8.556;2023-04-25T11:55:37;15.50;99.90
18898;DHT22;9581;49.484;8.556;2023-04-25T11:58:05;15.40;99.90
18898;DHT22;9581;49.484;8.556;2023-04-25T12:00:32;15.40;99.90
18898;DHT22;9581;49.484;8.556;2023-04-25T12:02:59;15.50;99.90
18898;DHT22;9581;49.484;8.556;2023-04-25T12:05:30;15.60;99.90
18898;DHT22;9581;49.484;8.556;2023-04-25T12:08:09;15.40;99.90
18898;DHT22;9581;49.484;8.556;2023-04-25T12:10:37;15.20;99.90
18898;DHT22;9581;49.484;8.556;2023-04-25T12:13:18;14.90;99.90
18898;DHT22;9581;49.484;8.556;2023-04-25T12:15:45;14.90;99.90
18898;DHT22;9581;49.484;8.556;2023-04-25T12:18:12;14.80;99.90
18898;DHT22;9581;49.484;8.556;2023-04-25T12:20:39;14.70;99.90
18898;DHT22;9581;49.484;8.556;2023-04-25T12:23:07;14.70;99.90
18898;DHT22;9581;49.484;8.556;2023-04-25T12:25:35;14.50;99.90
18898;DHT22;9581;49.484;8.556;2023-04-25T12:28:12;14.60;99.90
18898;DHT22;9581;49.484;8.556;2023-04-25T12:30:55;14.60;99.90
18898;DHT22;9581;49.484;8.556;2023-04-25T12:33:23;14.80;99.90
18898;DHT22;9581;49.484;8.556;2023-04-25T12:35:50;14.60;99.90
18898;DHT22;9581;49.484;8.556;2023-04-25T12:38:26;14.40;99.90
18898;DHT22;9581;49.484;8.556;2023-04-25T12:40:53;14.40;99.90
18898;DHT22;9581;49.484;8.556;2023-04-25T12:43:20;14.40;99.90
18898;DHT22;9581;49.484;8.556;2023-04-25T12:45:47;14.40;99.90
18898;DHT22;9581;49.484;8.556;2023-04-25T12:48:15;14.70;99.90
18898;DHT22;9581;49.484;8.556;2023-04-25T12:50:42;14.70;99.90
18898;DHT22;9581;49.484;8.556;2023-04-25T12:53:09;14.60;99.90
18898;DHT22;9581;49.484;8.556;2023-04-25T12:55:38;14.60;99.90
18898;DHT22;9581;49.484;8.556;2023-04-25T12:58:05;14.70;99.90
18898;DHT22;9581;49.484;8.556;2023-04-25T13:00:31;14.70;99.90
18898;DHT22;9581;49.484;8.556;2023-04-25T13:02:58;14.60;99.90
18898;DHT22;9581;49.484;8.556;2023-04-25T13:05:25;14.90;99.90
18898;DHT22;9581;49.484;8.556;2023-04-25T13:07:52;15.20;99.90
18898;DHT22;9581;49.484;8.556;2023-04-25T13:10:19;15.40;99.90
18898;DHT22;9581;49.484;8.556;2023-04-25T13:12:47;15.20;99.90
18898;DHT22;9581;49.484;8.556;2023-04-25T13:15:14;14.90;99.90
18898;DHT22;9581;49.484;8.556;2023-04-25T13:17:42;15.00;99.90
18898;DHT22;9581;49.484;8.556;2023-04-25T13:20:09;15.00;99.90
18898;DHT22;9581;49.484;8.556;2023-04-25T13:22:37;15.20;99.90
18898;DHT22;9581;49.484;8.556;2023-04-25T13:25:05;15.40;99.90
18898;DHT22;9581;49.484;8.556;2023-04-25T13:27:32;15.10;99.90
18898;DHT22;9581;49.484;8.556;2023-04-25T13:30:01;15.00;99.90
18898;DHT22;9581;49.484;8.556;2023-04-25T13:32:32;15.20;99.90
18898;DHT22;9581;49.484;8.556;2023-04-25T13:34:59;15.20;99.90
18898;DHT22;9581;49.484;8.556;2023-04-25T13:37:26;15.40;99.90
18898;DHT22;9581;49.484;8.556;2023-04-25T13:39:53;15.30;99.90
18898;DHT22;9581;49.484;8.556;2023-04-25T13:42:20;15.10;99.90
18898;DHT22;9581;49.484;8.556;2023-04-25T13:44:47;15.10;99.90
18898;DHT22;9581;49.484;8.556;2023-04-25T13:47:15;15.00;99.90
18898;DHT22;9581;49.484;8.556;2023-04-25T13:49:42;14.80;99.90
18898;DHT22;9581;49.484;8.556;2023-04-25T13:52:09;14.90;99.90
18898;DHT22;9581;49.484;8.556;2023-04-25T13:54:35;14.90;99.90
18898;DHT22;9581;49.484;8.556;2023-04-25T13:57:02;14.70;99.90
18898;DHT22;9581;49.484;8.556;2023-04-25T13:59:29;14.80;99.90
18898;DHT22;9581;49.484;8.556;2023-04-25T14:01:56;14.60;99.90
18898;DHT22;9581;49.484;8.556;2023-04-25T14:04:24;14.60;99.90
18898;DHT22;9581;49.484;8.556;2023-04-25T14:06:51;14.70;99.90
18898;DHT22;9581;49.484;8.556;2023-04-25T14:09:19;14.70;99.90
18898;DHT22;9581;49.484;8.556;2023-04-25T14:11:50;14.70;99.90
18898;DHT22;9581;49.484;8.556;2023-04-25T14:14:17;14.60;99.90
18898;DHT22;9581;49.484;8.556;2023-04-25T14:16:44;14.70;99.90
18898;DHT22;9581;49.484;8.556;2023-04-25T14:19:11;14.90;99.90
18898;DHT22;9581;49.484;8.556;2023-04-25T14:21:39;14.90;99.90
18898;DHT22;9581;49.484;8.556;2023-04-25T14:24:06;14.70;99.90
18898;DHT22;9581;49.484;8.556;2023-04-25T14:26:33;14.60;99.90
18898;DHT22;9581;49.484;8.556;2023-04-25T14:29:00;14.40;99.90
18898;DHT22;9581;49.484;8.556;2023-04-25T14:31:27;14.30;99.90
18898;DHT22;9581;49.484;8.556;2023-04-25T14:33:54;14.20;99.90
18898;DHT22;9581;49.484;8.556;2023-04-25T14:36:21;14.20;99.90
18898;DHT22;9581;49.484;8.556;2023-04-25T14:38:49;14.30;99.90
18898;DHT22;9581;49.484;8.556;2023-04-25T14:41:16;14.20;99.90
18898;DHT22;9581;49.484;8.556;2023-04-25T14:43:42;14.10;99.90
18898;DHT22;9581;49.484;8.556;2023-04-25T14:46:10;14.00;99.90
18898;DHT22;9581;49.484;8.556;2023-04-25T14:48:37;14.00;99.90
18898;DHT22;9581;49.484;8.556;2023-04-25T14:51:04;13.80;99.90
18898;DHT22;9581;49.484;8.556;2023-04-25T14:53:31;13.90;99.90
18898;DHT22;9581;49.484;8.556;2023-04-25T14:55:59;14.00;99.90
18898;DHT22;9581;49.484;8.556;2023-04-25T14:58:26;14.00;99.90
18898;DHT22;9581;49.484;8.556;2023-04-25T15:00:53;13.90;99.90
18898;DHT22;9581;49.484;8.556;2023-04-25T15:03:20;14.00;99.90
18898;DHT22;9581;49.484;8.556;2023-04-25T15:05:47;14.00;99.90
18898;DHT22;9581;49.484;8.556;2023-04-25T15:08:13;14.00;99.90
18898;DHT22;9581;49.484;8.556;2023-04-25T15:10:40;14.10;99.90
18898;DHT22;9581;49.484;8.556;2023-04-25T15:13:09;14.50;99.90
18898;DHT22;9581;49.484;8.556;2023-04-25T15:15:35;14.70;99.90
18898;DHT22;9581;49.484;8.556;2023-04-25T15:18:03;14.90;99.90
18898;DHT22;9581;49.484;8.556;2023-04-25T15:20:29;15.10;99.90
18898;DHT22;9581;49.484;8.556;2023-04-25T15:22:57;15.30;99.90
18898;DHT22;9581;49.484;8.556;2023-04-25T15:25:24;16.20;99.90
18898;DHT22;9581;49.484;8.556;2023-04-25T15:27:53;18.10;99.20
18898;DHT22;9581;49.484;8.556;2023-04-25T15:30:23;18.20;99.70
18898;DHT22;9581;49.484;8.556;2023-04-25T15:32:49;18.60;97.60
18898;DHT22;9581;49.484;8.556;2023-04-25T15:35:16;18.10;98.00
18898;DHT22;9581;49.484;8.556;2023-04-25T15:37:43;17.30;98.40
18898;DHT22;9581;49.484;8.556;2023-04-25T15:40:13;16.50;99.10
18898;DHT22;9581;49.484;8.556;2023-04-25T15:42:41;15.90;98.30
18898;DHT22;9581;49.484;8.556;2023-04-25T15:45:10;15.70;99.70
18898;DHT22;9581;49.484;8.556;2023-04-25T15:47:38;15.40;98.30
18898;DHT22;9581;49.484;8.556;2023-04-25T15:50:07;15.50;98.10